sensor_id;sensor_type;location;lat;lon;timestamp;pressure;altitude;pressure_sealevel;temperature;humidity
76195;BME280;64964;48.694;21.206;2023-04-24T00:00:36;97365.00;;;10.08;48.44
76195;BME280;64964;48.694;21.206;2023-04-24T00:03:02;97365.00;;;10.08;48.59
76195;BME280;64964;48.694;21.206;2023-04-24T00:05:28;97363.34;;;10.07;48.58
76195;BME280;64964;48.694;21.206;2023-04-24T00:07:53;97357.25;;;10.06;48.61
76195;BME280;64964;48.694;21.206;2023-04-24T00:10:19;97357.44;;;10.05;48.76
76195;BME280;64964;48.694;21.206;2023-04-24T00:12:45;97354.16;;;10.03;49.00
76195;BME280;64964;48.694;21.206;2023-04-24T00:15:11;97353.72;;;9.99;49.02
76195;BME280;64964;48.694;21.206;2023-04-24T00:17:36;97346.16;;;9.96;48.78
76195;BME280;64964;48.694;21.206;2023-04-24T00:20:03;97348.94;;;9.94;48.85
76195;BME280;64964;48.694;21.206;2023-04-24T00:22:30;97348.31;;;9.92;49.00
76195;BME280;64964;48.694;21.206;2023-04-24T00:24:56;97350.16;;;9.92;48.92
76195;BME280;64964;48.694;21.206;2023-04-24T00:27:21;97354.97;;;9.88;49.15
76195;BME280;64964;48.694;21.206;2023-04-24T00:29:47;97343.94;;;9.85;48.96
76195;BME280;64964;48.694;21.206;2023-04-24T00:32:13;97341.50;;;9.83;49.38
76195;BME280;64964;48.694;21.206;2023-04-24T00:34:38;97347.94;;;9.81;49.26
76195;BME280;64964;48.694;21.206;2023-04-24T00:37:04;97341.03;;;9.80;49.49
76195;BME280;64964;48.694;21.206;2023-04-24T00:39:30;97350.94;;;9.78;49.40
76195;BME280;64964;48.694;21.206;2023-04-24T00:41:56;97344.03;;;9.77;49.38
76195;BME280;64964;48.694;21.206;2023-04-24T00:44:21;97337.75;;;9.78;49.37
76195;BME280;64964;48.694;21.206;2023-04-24T00:46:47;97334.13;;;9.79;49.35
76195;BME280;64964;48.694;21.206;2023-04-24T00:49:18;97335.94;;;9.78;49.33
76195;BME280;64964;48.694;21.206;2023-04-24T00:51:43;97328.19;;;9.77;49.75
76195;BME280;64964;48.694;21.206;2023-04-24T00:54:11;97327.19;;;9.78;49.00
76195;BME280;64964;48.694;21.206;2023-04-24T00:56:37;97324.91;;;9.75;49.31
76195;BME280;64964;48.694;21.206;2023-04-24T00:59:03;97331.19;;;9.73;49.31
76195;BME280;64964;48.694;21.206;2023-04-24T01:01:29;97329.91;;;9.69;49.91
76195;BME280;64964;48.694;21.206;2023-04-24T01:03:56;97327.66;;;9.66;50.05
76195;BME280;64964;48.694;21.206;2023-04-24T01:06:23;97326.81;;;9.66;49.92
76195;BME280;64964;48.694;21.206;2023-04-24T01:08:52;97323.72;;;9.62;50.09
76195;BME280;64964;48.694;21.206;2023-04-24T01:11:17;97331.63;;;9.62;49.71
76195;BME280;64964;48.694;21.206;2023-04-24T01:13:43;97324.88;;;9.60;49.84
76195;BME280;64964;48.694;21.206;2023-04-24T01:16:08;97323.25;;;9.59;49.98
76195;BME280;64964;48.694;21.206;2023-04-24T01:18:33;97331.38;;;9.57;50.03
76195;BME280;64964;48.694;21.206;2023-04-24T01:20:59;97319.00;;;9.58;50.03
76195;BME280;64964;48.694;21.206;2023-04-24T01:23:28;97322.78;;;9.55;50.17
76195;BME280;64964;48.694;21.206;2023-04-24T01:25:53;97328.06;;;9.55;50.07
76195;BME280;64964;48.694;21.206;2023-04-24T01:28:19;97325.44;;;9.55;50.32
76195;BME280;64964;48.694;21.206;2023-04-24T01:30:44;97321.78;;;9.56;50.21
76195;BME280;64964;48.694;21.206;2023-04-24T01:33:10;97320.81;;;9.57;50.03
76195;BME280;64964;48.694;21.206;2023-04-24T01:35:36;97318.16;;;9.57;50.20
76195;BME280;64964;48.694;21.206;2023-04-24T01:38:03;97317.16;;;9.58;50.11
76195;BME280;64964;48.694;21.206;2023-04-24T01:40:28;97313.31;;;9.61;49.81
76195;BME280;64964;48.694;21.206;2023-04-24T01:42:54;97315.81;;;9.62;49.88
76195;BME280;64964;48.694;21.206;2023-04-24T01:45:19;97323.72;;;9.62;49.98
76195;BME280;64964;48.694;21.206;2023-04-24T01:47:46;97318.44;;;9.62;50.06
76195;BME280;64964;48.694;21.206;2023-04-24T01:50:12;97315.81;;;9.62;49.90
76195;BME280;64964;48.694;21.206;2023-04-24T01:52:37;97312.50;;;9.60;49.76
76195;BME280;64964;48.694;21.206;2023-04-24T01:55:03;97315.34;;;9.59;50.06
76195;BME280;64964;48.694;21.206;2023-04-24T01:57:30;97318.34;;;9.56;50.21
76195;BME280;64964;48.694;21.206;2023-04-24T01:59:56;97314.25;;;9.53;50.29
76195;BME280;64964;48.694;21.206;2023-04-24T02:02:22;97311.97;;;9.50;50.49
76195;BME280;64964;48.694;21.206;2023-04-24T02:04:49;97303.38;;;9.48;50.34
76195;BME280;64964;48.694;21.206;2023-04-24T02:07:15;97302.09;;;9.44;50.38
76195;BME280;64964;48.694;21.206;2023-04-24T02:09:40;97304.75;;;9.44;50.29
76195;BME280;64964;48.694;21.206;2023-04-24T02:12:05;97300.66;;;9.41;50.29
76195;BME280;64964;48.694;21.206;2023-04-24T02:14:31;97290.47;;;9.38;50.71
76195;BME280;64964;48.694;21.206;2023-04-24T02:16:56;97287.38;;;9.35;50.52
76195;BME280;64964;48.694;21.206;2023-04-24T02:19:21;97293.66;;;9.34;50.58
76195;BME280;64964;48.694;21.206;2023-04-24T02:21:47;97286.91;;;9.31;50.66
76195;BME280;64964;48.694;21.206;2023-04-24T02:24:12;97281.53;;;9.25;50.87
76195;BME280;64964;48.694;21.206;2023-04-24T02:26:37;97278.97;;;9.16;51.39
76195;BME280;64964;48.694;21.206;2023-04-24T02:29:03;97281.66;;;9.08;51.10
76195;BME280;64964;48.694;21.206;2023-04-24T02:31:28;97274.91;;;9.06;51.08
76195;BME280;64964;48.694;21.206;2023-04-24T02:33:53;97277.91;;;9.03;51.18
76195;BME280;64964;48.694;21.206;2023-04-24T02:36:19;97274.63;;;9.01;51.28
76195;BME280;64964;48.694;21.206;2023-04-24T02:38:44;97280.59;;;8.94;51.50
76195;BME280;64964;48.694;21.206;2023-04-24T02:41:10;97275.53;;;8.93;51.44
76195;BME280;64964;48.694;21.206;2023-04-24T02:43:35;97274.06;;;8.90;51.70
76195;BME280;64964;48.694;21.206;2023-04-24T02:46:01;97273.22;;;8.90;51.67
76195;BME280;64964;48.694;21.206;2023-04-24T02:48:26;97271.59;;;8.89;51.47
76195;BME280;64964;48.694;21.206;2023-04-24T02:50:52;97266.31;;;8.89;51.60
76195;BME280;64964;48.694;21.206;2023-04-24T02:53:18;97262.06;;;8.88;51.88
76195;BME280;64964;48.694;21.206;2023-04-24T02:55:43;97263.06;;;8.87;51.94
76195;BME280;64964;48.694;21.206;2023-04-24T02:58:09;97263.06;;;8.87;52.19
76195;BME280;64964;48.694;21.206;2023-04-24T03:00:35;97258.13;;;8.84;52.48
76195;BME280;64964;48.694;21.206;2023-04-24T03:03:01;97265.56;;;8.80;52.20
76195;BME280;64964;48.694;21.206;2023-04-24T03:05:26;97259.81;;;8.77;52.01
76195;BME280;64964;48.694;21.206;2023-04-24T03:07:52;97262.47;;;8.77;52.30
76195;BME280;64964;48.694;21.206;2023-04-24T03:10:18;97263.47;;;8.76;52.55
76195;BME280;64964;48.694;21.206;2023-04-24T03:12:44;97260.00;;;8.75;52.33
76195;BME280;64964;48.694;21.206;2023-04-24T03:15:09;97263.66;;;8.74;52.34
76195;BME280;64964;48.694;21.206;2023-04-24T03:17:35;97263.66;;;8.74;52.35
76195;BME280;64964;48.694;21.206;2023-04-24T03:20:01;97261.00;;;8.74;52.23
76195;BME280;64964;48.694;21.206;2023-04-24T03:22:26;97261.66;;;8.76;51.91
76195;BME280;64964;48.694;21.206;2023-04-24T03:24:51;97260.47;;;8.79;51.82
76195;BME280;64964;48.694;21.206;2023-04-24T03:27:17;97265.38;;;8.82;51.36
76195;BME280;64964;48.694;21.206;2023-04-24T03:29:42;97267.66;;;8.85;51.40
76195;BME280;64964;48.694;21.206;2023-04-24T03:32:07;97265.50;;;8.88;51.12
76195;BME280;64964;48.694;21.206;2023-04-24T03:34:33;97258.88;;;8.92;51.36
76195;BME280;64964;48.694;21.206;2023-04-24T03:36:58;97264.63;;;8.96;51.14
76195;BME280;64964;48.694;21.206;2023-04-24T03:39:23;97266.91;;;8.99;51.10
76195;BME280;64964;48.694;21.206;2023-04-24T03:41:50;97269.38;;;9.01;51.39
76195;BME280;64964;48.694;21.206;2023-04-24T03:44:15;97271.81;;;9.02;51.52
76195;BME280;64964;48.694;21.206;2023-04-24T03:46:41;97263.09;;;9.02;51.63
76195;BME280;64964;48.694;21.206;2023-04-24T03:49:06;97268.84;;;9.05;51.59
76195;BME280;64964;48.694;21.206;2023-04-24T03:51:31;97265.84;;;9.08;51.52
76195;BME280;64964;48.694;21.206;2023-04-24T03:53:57;97264.50;;;9.12;51.24
76195;BME280;64964;48.694;21.206;2023-04-24T03:56:22;97262.31;;;9.16;51.41
76195;BME280;64964;48.694;21.206;2023-04-24T03:58:47;97267.69;;;9.22;50.99
76195;BME280;64964;48.694;21.206;2023-04-24T04:01:13;97275.88;;;9.28;51.23
76195;BME280;64964;48.694;21.206;2023-04-24T04:03:41;97260.16;;;9.34;51.03
76195;BME280;64964;48.694;21.206;2023-04-24T04:06:06;97264.34;;;9.43;51.12
76195;BME280;64964;48.694;21.206;2023-04-24T04:08:31;97270.56;;;9.51;50.99
76195;BME280;64964;48.694;21.206;2023-04-24T04:10:57;97275.75;;;9.59;50.75
76195;BME280;64964;48.694;21.206;2023-04-24T04:13:22;97271.66;;;9.71;50.65
76195;BME280;64964;48.694;21.206;2023-04-24T04:15:47;97272.22;;;9.81;50.78
76195;BME280;64964;48.694;21.206;2023-04-24T04:18:13;97272.56;;;9.93;50.70
76195;BME280;64964;48.694;21.206;2023-04-24T04:20:38;97269.94;;;10.08;50.26
76195;BME280;64964;48.694;21.206;2023-04-24T04:23:04;97264.72;;;10.29;50.09
76195;BME280;64964;48.694;21.206;2023-04-24T04:25:29;97275.66;;;10.62;50.00
76195;BME280;64964;48.694;21.206;2023-04-24T04:27:54;97276.41;;;10.99;49.73
76195;BME280;64964;48.694;21.206;2023-04-24T04:30:20;97273.97;;;11.47;48.69
76195;BME280;64964;48.694;21.206;2023-04-24T04:32:46;97268.88;;;12.08;48.09
76195;BME280;64964;48.694;21.206;2023-04-24T04:35:11;97266.84;;;12.78;47.46
76195;BME280;64964;48.694;21.206;2023-04-24T04:37:37;97262.00;;;13.55;46.30
76195;BME280;64964;48.694;21.206;2023-04-24T04:40:03;97272.03;;;14.31;45.23
76195;BME280;64964;48.694;21.206;2023-04-24T04:42:33;97276.13;;;15.10;43.62
76195;BME280;64964;48.694;21.206;2023-04-24T04:45:01;97272.19;;;15.87;42.40
76195;BME280;64964;48.694;21.206;2023-04-24T04:47:27;97274.00;;;16.60;41.26
76195;BME280;64964;48.694;21.206;2023-04-24T04:49:53;97278.91;;;17.35;40.48
76195;BME280;64964;48.694;21.206;2023-04-24T04:52:19;97277.06;;;18.06;39.21
76195;BME280;64964;48.694;21.206;2023-04-24T04:54:44;97268.41;;;18.68;38.03
76195;BME280;64964;48.694;21.206;2023-04-24T04:57:10;97273.06;;;19.35;36.96
76195;BME280;64964;48.694;21.206;2023-04-24T04:59:35;97282.09;;;19.96;35.67
76195;BME280;64964;48.694;21.206;2023-04-24T05:02:02;97280.47;;;20.56;34.74
76195;BME280;64964;48.694;21.206;2023-04-24T05:04:28;97269.44;;;21.06;34.56
76195;BME280;64964;48.694;21.206;2023-04-24T05:06:53;97272.88;;;21.61;33.31
76195;BME280;64964;48.694;21.206;2023-04-24T05:09:18;97275.34;;;22.10;32.50
76195;BME280;64964;48.694;21.206;2023-04-24T05:11:44;97275.88;;;22.59;31.71
76195;BME280;64964;48.694;21.206;2023-04-24T05:14:09;97279.25;;;23.02;31.32
76195;BME280;64964;48.694;21.206;2023-04-24T05:16:35;97279.81;;;23.40;30.34
76195;BME280;64964;48.694;21.206;2023-04-24T05:19:02;97277.38;;;24.05;29.28
76195;BME280;64964;48.694;21.206;2023-04-24T05:21:27;97276.97;;;24.52;28.71
76195;BME280;64964;48.694;21.206;2023-04-24T05:23:52;97278.41;;;24.89;27.72
76195;BME280;64964;48.694;21.206;2023-04-24T05:26:18;97278.69;;;25.32;27.62
76195;BME280;64964;48.694;21.206;2023-04-24T05:28:44;97277.00;;;25.75;26.90
76195;BME280;64964;48.694;21.206;2023-04-24T05:31:09;97272.53;;;25.90;26.55
76195;BME280;64964;48.694;21.206;2023-04-24T05:33:35;97284.22;;;26.14;26.42
76195;BME280;64964;48.694;21.206;2023-04-24T05:36:00;97280.91;;;26.41;25.73
76195;BME280;64964;48.694;21.206;2023-04-24T05:38:26;97279.59;;;26.63;25.50
76195;BME280;64964;48.694;21.206;2023-04-24T05:40:51;97277.66;;;27.06;25.18
76195;BME280;64964;48.694;21.206;2023-04-24T05:43:16;97273.47;;;27.33;24.84
76195;BME280;64964;48.694;21.206;2023-04-24T05:45:42;97276.22;;;27.46;24.01
76195;BME280;64964;48.694;21.206;2023-04-24T05:48:07;97274.84;;;27.49;24.49
76195;BME280;64964;48.694;21.206;2023-04-24T05:50:32;97278.81;;;27.70;24.40
76195;BME280;64964;48.694;21.206;2023-04-24T05:52:58;97279.91;;;27.88;24.20
76195;BME280;64964;48.694;21.206;2023-04-24T05:55:24;97283.66;;;28.06;23.67
76195;BME280;64964;48.694;21.206;2023-04-24T05:57:50;97275.38;;;27.84;23.88
76195;BME280;64964;48.694;21.206;2023-04-24T06:00:16;97275.69;;;27.96;23.68
76195;BME280;64964;48.694;21.206;2023-04-24T06:02:43;97274.59;;;27.97;23.69
76195;BME280;64964;48.694;21.206;2023-04-24T06:05:08;97263.09;;;27.86;23.56
76195;BME280;64964;48.694;21.206;2023-04-24T06:07:33;97266.94;;;27.66;23.75
76195;BME280;64964;48.694;21.206;2023-04-24T06:09:59;97264.31;;;27.28;24.24
76195;BME280;64964;48.694;21.206;2023-04-24T06:12:25;97259.03;;;26.80;24.44
76195;BME280;64964;48.694;21.206;2023-04-24T06:14:51;97264.06;;;26.20;24.40
76195;BME280;64964;48.694;21.206;2023-04-24T06:17:16;97264.28;;;25.71;24.86
76195;BME280;64964;48.694;21.206;2023-04-24T06:19:42;97266.91;;;25.18;25.46
76195;BME280;64964;48.694;21.206;2023-04-24T06:22:07;97270.41;;;24.69;25.71
76195;BME280;64964;48.694;21.206;2023-04-24T06:24:33;97267.00;;;24.32;26.44
76195;BME280;64964;48.694;21.206;2023-04-24T06:26:59;97264.44;;;23.92;26.77
76195;BME280;64964;48.694;21.206;2023-04-24T06:29:25;97262.03;;;23.39;27.15
76195;BME280;64964;48.694;21.206;2023-04-24T06:31:51;97258.75;;;23.11;28.35
76195;BME280;64964;48.694;21.206;2023-04-24T06:34:16;97259.50;;;22.81;28.16
76195;BME280;64964;48.694;21.206;2023-04-24T06:36:41;97263.47;;;22.53;28.50
76195;BME280;64964;48.694;21.206;2023-04-24T06:39:07;97266.88;;;22.28;28.34
76195;BME280;64964;48.694;21.206;2023-04-24T06:41:32;97258.75;;;21.76;29.04
76195;BME280;64964;48.694;21.206;2023-04-24T06:43:57;97261.88;;;21.30;29.41
76195;BME280;64964;48.694;21.206;2023-04-24T06:46:23;97251.38;;;20.70;30.40
76195;BME280;64964;48.694;21.206;2023-04-24T06:48:54;97248.22;;;20.34;31.07
76195;BME280;64964;48.694;21.206;2023-04-24T06:51:25;97249.25;;;19.89;32.62
76195;BME280;64964;48.694;21.206;2023-04-24T06:53:51;97248.22;;;19.90;32.63
76195;BME280;64964;48.694;21.206;2023-04-24T06:56:17;97244.59;;;20.01;32.89
76195;BME280;64964;48.694;21.206;2023-04-24T06:58:42;97249.31;;;20.11;32.78
76195;BME280;64964;48.694;21.206;2023-04-24T07:01:08;97235.13;;;20.15;32.77
76195;BME280;64964;48.694;21.206;2023-04-24T07:03:33;97240.81;;;19.80;33.10
76195;BME280;64964;48.694;21.206;2023-04-24T07:05:59;97241.91;;;19.62;33.30
76195;BME280;64964;48.694;21.206;2023-04-24T07:08:24;97252.22;;;19.54;33.13
76195;BME280;64964;48.694;21.206;2023-04-24T07:10:50;97247.59;;;19.15;34.27
76195;BME280;64964;48.694;21.206;2023-04-24T07:13:16;97241.44;;;18.70;34.88
76195;BME280;64964;48.694;21.206;2023-04-24T07:15:42;97244.50;;;18.50;35.56
76195;BME280;64964;48.694;21.206;2023-04-24T07:18:08;97248.44;;;18.19;36.06
76195;BME280;64964;48.694;21.206;2023-04-24T07:20:33;97248.47;;;17.95;35.76
76195;BME280;64964;48.694;21.206;2023-04-24T07:22:59;97235.00;;;17.90;36.72
76195;BME280;64964;48.694;21.206;2023-04-24T07:25:24;97244.50;;;17.62;37.42
76195;BME280;64964;48.694;21.206;2023-04-24T07:27:50;97249.78;;;17.04;38.47
76195;BME280;64964;48.694;21.206;2023-04-24T07:30:15;97252.19;;;16.82;39.49
76195;BME280;64964;48.694;21.206;2023-04-24T07:32:41;97253.22;;;16.81;39.34
76195;BME280;64964;48.694;21.206;2023-04-24T07:35:06;97240.78;;;16.75;39.76
76195;BME280;64964;48.694;21.206;2023-04-24T07:37:32;97241.13;;;16.78;39.56
76195;BME280;64964;48.694;21.206;2023-04-24T07:39:57;97235.72;;;16.66;40.55
76195;BME280;64964;48.694;21.206;2023-04-24T07:42:23;97242.41;;;16.76;40.21
76195;BME280;64964;48.694;21.206;2023-04-24T07:44:48;97237.69;;;17.01;40.26
76195;BME280;64964;48.694;21.206;2023-04-24T07:47:14;97238.22;;;17.10;40.58
76195;BME280;64964;48.694;21.206;2023-04-24T07:49:42;97236.81;;;17.07;40.50
76195;BME280;64964;48.694;21.206;2023-04-24T07:52:08;97236.66;;;16.90;40.79
76195;BME280;64964;48.694;21.206;2023-04-24T07:54:33;97238.78;;;17.12;40.43
76195;BME280;64964;48.694;21.206;2023-04-24T07:56:59;97235.44;;;17.28;41.39
76195;BME280;64964;48.694;21.206;2023-04-24T07:59:25;97233.69;;;17.22;40.58
76195;BME280;64964;48.694;21.206;2023-04-24T08:01:50;97227.78;;;17.32;40.95
76195;BME280;64964;48.694;21.206;2023-04-24T08:04:16;97222.66;;;17.54;40.77
76195;BME280;64964;48.694;21.206;2023-04-24T08:06:43;97217.44;;;17.71;39.70
76195;BME280;64964;48.694;21.206;2023-04-24T08:09:08;97213.84;;;17.53;40.85
76195;BME280;64964;48.694;21.206;2023-04-24T08:11:34;97215.47;;;17.54;41.04
76195;BME280;64964;48.694;21.206;2023-04-24T08:13:59;97199.66;;;17.53;41.08
76195;BME280;64964;48.694;21.206;2023-04-24T08:16:25;97204.44;;;17.86;40.54
76195;BME280;64964;48.694;21.206;2023-04-24T08:18:50;97204.06;;;17.94;40.45
76195;BME280;64964;48.694;21.206;2023-04-24T08:21:16;97200.00;;;17.91;40.92
76195;BME280;64964;48.694;21.206;2023-04-24T08:23:44;97202.69;;;17.80;40.86
76195;BME280;64964;48.694;21.206;2023-04-24T08:26:09;97201.28;;;17.54;41.51
76195;BME280;64964;48.694;21.206;2023-04-24T08:28:36;97201.28;;;17.42;42.26
76195;BME280;64964;48.694;21.206;2023-04-24T08:31:02;97204.06;;;17.59;42.00
76195;BME280;64964;48.694;21.206;2023-04-24T08:33:27;97197.91;;;17.70;41.88
76195;BME280;64964;48.694;21.206;2023-04-24T08:35:57;97192.22;;;17.66;41.83
76195;BME280;64964;48.694;21.206;2023-04-24T08:38:25;97195.47;;;17.80;42.00
76195;BME280;64964;48.694;21.206;2023-04-24T08:40:50;97190.81;;;17.87;42.63
76195;BME280;64964;48.694;21.206;2023-04-24T08:43:16;97195.78;;;17.96;42.46
76195;BME280;64964;48.694;21.206;2023-04-24T08:45:42;97191.19;;;18.20;41.67
76195;BME280;64964;48.694;21.206;2023-04-24T08:48:08;97185.91;;;18.36;41.85
76195;BME280;64964;48.694;21.206;2023-04-24T08:50:34;97180.22;;;18.33;41.57
76195;BME280;64964;48.694;21.206;2023-04-24T08:53:01;97182.59;;;18.46;41.77
76195;BME280;64964;48.694;21.206;2023-04-24T08:55:26;97179.69;;;18.48;40.84
76195;BME280;64964;48.694;21.206;2023-04-24T08:57:52;97183.84;;;18.27;40.36
76195;BME280;64964;48.694;21.206;2023-04-24T09:00:20;97179.63;;;18.59;40.36
76195;BME280;64964;48.694;21.206;2023-04-24T09:02:47;97180.13;;;18.56;39.63
76195;BME280;64964;48.694;21.206;2023-04-24T09:05:14;97171.88;;;18.46;39.87
76195;BME280;64964;48.694;21.206;2023-04-24T09:07:45;97173.50;;;18.47;40.53
76195;BME280;64964;48.694;21.206;2023-04-24T09:10:11;97167.13;;;18.48;40.17
76195;BME280;64964;48.694;21.206;2023-04-24T09:12:37;97174.66;;;18.51;40.03
76195;BME280;64964;48.694;21.206;2023-04-24T09:15:03;97177.28;;;18.63;40.04
76195;BME280;64964;48.694;21.206;2023-04-24T09:17:30;97173.69;;;18.86;39.35
76195;BME280;64964;48.694;21.206;2023-04-24T09:19:56;97173.28;;;19.11;39.80
76195;BME280;64964;48.694;21.206;2023-04-24T09:22:21;97173.69;;;19.20;38.28
76195;BME280;64964;48.694;21.206;2023-04-24T09:24:47;97170.44;;;19.17;39.12
76195;BME280;64964;48.694;21.206;2023-04-24T09:27:13;97171.16;;;18.96;39.63
76195;BME280;64964;48.694;21.206;2023-04-24T09:29:53;97163.53;;;19.22;39.92
76195;BME280;64964;48.694;21.206;2023-04-24T09:32:22;97168.22;;;19.48;39.63
76195;BME280;64964;48.694;21.206;2023-04-24T09:35:05;97159.59;;;19.46;38.03
76195;BME280;64964;48.694;21.206;2023-04-24T09:37:35;97160.41;;;19.47;39.20
76195;BME280;64964;48.694;21.206;2023-04-24T09:40:18;97163.44;;;19.33;39.05
76195;BME280;64964;48.694;21.206;2023-04-24T09:42:57;97159.06;;;19.44;37.90
76195;BME280;64964;48.694;21.206;2023-04-24T09:45:44;97147.44;;;19.22;38.26
76195;BME280;64964;48.694;21.206;2023-04-24T09:48:10;97141.78;;;19.57;38.50
76195;BME280;64964;48.694;21.206;2023-04-24T09:50:35;97146.41;;;19.78;38.81
76195;BME280;64964;48.694;21.206;2023-04-24T09:53:03;97148.06;;;19.84;37.91
76195;BME280;64964;48.694;21.206;2023-04-24T09:55:29;97145.75;;;19.93;37.53
76195;BME280;64964;48.694;21.206;2023-04-24T09:57:58;97147.50;;;19.44;36.89
76195;BME280;64964;48.694;21.206;2023-04-24T10:00:27;97144.84;;;19.27;37.66
76195;BME280;64964;48.694;21.206;2023-04-24T10:05:27;97134.97;;;19.10;39.18
76195;BME280;64964;48.694;21.206;2023-04-24T10:07:56;97140.63;;;19.31;39.14
76195;BME280;64964;48.694;21.206;2023-04-24T10:10:22;97133.88;;;19.28;39.53
76195;BME280;64964;48.694;21.206;2023-04-24T10:12:48;97144.69;;;19.33;38.29
76195;BME280;64964;48.694;21.206;2023-04-24T10:15:16;97136.75;;;19.05;38.55
76195;BME280;64964;48.694;21.206;2023-04-24T10:17:47;97148.13;;;18.78;39.43
76195;BME280;64964;48.694;21.206;2023-04-24T10:20:21;97149.91;;;18.89;38.84
76195;BME280;64964;48.694;21.206;2023-04-24T10:22:48;97143.09;;;18.82;39.30
76195;BME280;64964;48.694;21.206;2023-04-24T10:25:19;97146.19;;;18.90;39.36
76195;BME280;64964;48.694;21.206;2023-04-24T10:27:46;97141.16;;;18.94;40.13
76195;BME280;64964;48.694;21.206;2023-04-24T10:30:12;97149.19;;;19.11;39.64
76195;BME280;64964;48.694;21.206;2023-04-24T10:32:38;97141.16;;;19.11;39.60
76195;BME280;64964;48.694;21.206;2023-04-24T10:35:04;97145.69;;;19.10;39.18
76195;BME280;64964;48.694;21.206;2023-04-24T10:37:36;97159.97;;;18.99;39.57
76195;BME280;64964;48.694;21.206;2023-04-24T10:40:02;97157.03;;;18.84;39.66
76195;BME280;64964;48.694;21.206;2023-04-24T10:42:28;97154.63;;;18.54;40.18
76195;BME280;64964;48.694;21.206;2023-04-24T10:44:53;97151.78;;;18.44;40.76
76195;BME280;64964;48.694;21.206;2023-04-24T10:47:19;97150.81;;;18.21;40.72
76195;BME280;64964;48.694;21.206;2023-04-24T10:49:45;97146.28;;;18.22;40.82
76195;BME280;64964;48.694;21.206;2023-04-24T10:52:10;97151.22;;;18.01;41.63
76195;BME280;64964;48.694;21.206;2023-04-24T10:59:43;97153.25;;;17.94;41.96
76195;BME280;64964;48.694;21.206;2023-04-24T11:02:09;97155.59;;;17.90;41.79
76195;BME280;64964;48.694;21.206;2023-04-24T11:04:34;97158.25;;;17.90;41.91
76195;BME280;64964;48.694;21.206;2023-04-24T11:07:03;97151.41;;;17.83;42.84
76195;BME280;64964;48.694;21.206;2023-04-24T11:09:31;97150.50;;;17.65;42.54
76195;BME280;64964;48.694;21.206;2023-04-24T11:12:07;97152.34;;;17.65;43.17
76195;BME280;64964;48.694;21.206;2023-04-24T11:17:34;97161.09;;;17.25;43.78
76195;BME280;64964;48.694;21.206;2023-04-24T11:20:16;97153.69;;;17.27;43.96
76195;BME280;64964;48.694;21.206;2023-04-24T11:22:41;97150.88;;;17.22;43.93
76195;BME280;64964;48.694;21.206;2023-04-24T11:25:08;97152.72;;;17.22;44.53
76195;BME280;64964;48.694;21.206;2023-04-24T11:27:44;97149.00;;;16.99;45.06
76195;BME280;64964;48.694;21.206;2023-04-24T11:30:11;97155.97;;;17.00;45.12
76195;BME280;64964;48.694;21.206;2023-04-24T11:32:41;97150.28;;;16.97;44.95
76195;BME280;64964;48.694;21.206;2023-04-24T11:37:35;97146.69;;;16.91;45.60
76195;BME280;64964;48.694;21.206;2023-04-24T11:40:01;97148.91;;;16.94;45.40
76195;BME280;64964;48.694;21.206;2023-04-24T11:42:27;97154.22;;;16.82;45.99
76195;BME280;64964;48.694;21.206;2023-04-24T11:44:54;97150.38;;;16.78;45.86
76195;BME280;64964;48.694;21.206;2023-04-24T11:47:32;97147.16;;;16.58;46.59
76195;BME280;64964;48.694;21.206;2023-04-24T11:49:59;97150.28;;;16.55;46.79
76195;BME280;64964;48.694;21.206;2023-04-24T11:52:29;97151.22;;;16.49;46.85
76195;BME280;64964;48.694;21.206;2023-04-24T11:54:55;97150.59;;;16.47;47.88
76195;BME280;64964;48.694;21.206;2023-04-24T11:57:25;97147.31;;;16.33;50.00
76195;BME280;64964;48.694;21.206;2023-04-24T11:59:53;97147.00;;;16.41;50.48
76195;BME280;64964;48.694;21.206;2023-04-24T12:02:22;97136.28;;;16.29;51.08
76195;BME280;64964;48.694;21.206;2023-04-24T12:04:48;97142.69;;;16.28;52.09
76195;BME280;64964;48.694;21.206;2023-04-24T12:07:13;97139.09;;;16.34;50.31
76195;BME280;64964;48.694;21.206;2023-04-24T12:09:50;97144.91;;;16.31;51.90
76195;BME280;64964;48.694;21.206;2023-04-24T12:12:20;97141.31;;;16.37;51.29
76195;BME280;64964;48.694;21.206;2023-04-24T12:14:49;97139.69;;;16.36;50.54
76195;BME280;64964;48.694;21.206;2023-04-24T12:17:16;97146.16;;;16.29;50.85
76195;BME280;64964;48.694;21.206;2023-04-24T12:19:46;97136.09;;;16.31;52.44
76195;BME280;64964;48.694;21.206;2023-04-24T12:22:12;97139.31;;;16.33;52.41
76195;BME280;64964;48.694;21.206;2023-04-24T12:24:56;97136.56;;;16.39;55.06
76195;BME280;64964;48.694;21.206;2023-04-24T12:27:22;97140.31;;;16.50;51.49
76195;BME280;64964;48.694;21.206;2023-04-24T12:29:52;97130.34;;;16.57;51.94
76195;BME280;64964;48.694;21.206;2023-04-24T12:32:18;97135.34;;;16.65;51.35
76195;BME280;64964;48.694;21.206;2023-04-24T12:34:44;97130.81;;;16.66;52.29
76195;BME280;64964;48.694;21.206;2023-04-24T12:37:11;97126.03;;;16.44;52.50
76195;BME280;64964;48.694;21.206;2023-04-24T12:39:36;97126.38;;;16.48;51.50
76195;BME280;64964;48.694;21.206;2023-04-24T12:42:01;97124.94;;;16.34;51.28
76195;BME280;64964;48.694;21.206;2023-04-24T12:44:33;97127.03;;;16.32;52.09
76195;BME280;64964;48.694;21.206;2023-04-24T12:47:00;97126.94;;;16.08;51.03
76195;BME280;64964;48.694;21.206;2023-04-24T12:49:25;97118.06;;;16.14;50.61
76195;BME280;64964;48.694;21.206;2023-04-24T12:51:51;97124.00;;;15.98;51.09
76195;BME280;64964;48.694;21.206;2023-04-24T12:54:16;97119.72;;;15.97;51.44
76195;BME280;64964;48.694;21.206;2023-04-24T12:56:42;97128.84;;;15.89;51.46
76195;BME280;64964;48.694;21.206;2023-04-24T12:59:07;97125.06;;;15.60;53.71
76195;BME280;64964;48.694;21.206;2023-04-24T13:01:32;97122.84;;;15.57;53.82